Urb Fajardo Gdns, Puerto Rico
Current Conditions -  °F | °C
As of 2:53 PM on Saturday 25 Oct 2014 (Local Time) from TJNR Reporting Station
Clear Clear  
Wind Chill: 89°   Ceiling: Unl
Heat Index: 99°   Visibility: 10mi
Dew Point: 75°   Wind: 14mph
Humidity: 63%   Direction: 150°SSE
Pressure: 29.89"   Gusts: NA
Location:  18.3304°N, 65.6573°W
Report Text: TJNR 251853Z AUTO 15012KT 10SM CLR 32/24 A2989 RMK AO2 SLP120 T03170239 $
Loading
Personal Weather Stations






























Interactive Weather Map
Tropical Storm Tracking
New forecast layout! Learn more

10-Day Weather Forecast

Advertisements
Track Severe Weather on mobile